ADDS METAR Data INFO
IDs: Format: Raw Decoded Include TAF

Data at: 1320 UTC 19 Jul 2018

KMLJ 191315Z AUTO 13003KT 10SM CLR 26/23 A2998 RMK AO2
KMLJ 191255Z AUTO 09004KT 10SM CLR 26/23 A2998 RMK AO2
KMLJ 191235Z AUTO 00000KT 10SM CLR 25/23 A2998 RMK AO2 LTG DSNT NW
KMLJ 191215Z AUTO 00000KT 10SM CLR 25/23 A2997 RMK AO2
KMLJ 191155Z AUTO 00000KT 10SM CLR 24/23 A2997 RMK AO2
KMLJ 191135Z AUTO 00000KT 10SM CLR 23/23 A2997 RMK AO2
KMLJ 191115Z AUTO 00000KT 7SM CLR 23/23 A2997 RMK AO2
KMLJ 191055Z AUTO 00000KT 5SM BR SCT005 22/22 A2996 RMK AO2
KMLJ 191035Z AUTO 00000KT 7SM BKN003 22/22 A2995 RMK AO2
KMLJ 191015Z AUTO 00000KT 7SM BKN003 BKN008 23/22 A2994 RMK AO2
KMLJ 190955Z AUTO 00000KT 7SM SCT003 23/22 A2993 RMK AO2
KMLJ 190935Z AUTO 00000KT 7SM CLR 22/22 A2993 RMK AO2
KMLJ 190915Z AUTO 00000KT 7SM CLR 23/23 A2993 RMK AO2
KMLJ 190855Z AUTO 00000KT 7SM CLR 23/23 A2993 RMK AO2
KMLJ 190835Z AUTO 00000KT 7SM SCT040 23/23 A2992 RMK AO2
KMLJ 190815Z AUTO 00000KT 7SM SCT040 23/23 A2993 RMK AO2
KMLJ 190755Z AUTO 00000KT 7SM SCT038 23/23 A2993 RMK AO2
KMLJ 190735Z AUTO 00000KT 7SM CLR 23/23 A2993 RMK AO2
KMLJ 190715Z AUTO 00000KT 10SM CLR 23/23 A2993 RMK AO2
KMLJ 190655Z AUTO 00000KT 10SM CLR 23/23 A2993 RMK AO2
KMLJ 190635Z AUTO 00000KT 10SM CLR 24/23 A2993 RMK AO2
KMLJ 190615Z AUTO 00000KT 10SM CLR 24/23 A2993 RMK AO2
KMLJ 190555Z AUTO 00000KT 10SM CLR 24/23 A2993 RMK AO2
KMLJ 190535Z AUTO 00000KT 10SM CLR 25/23 A2992 RMK AO2
KMLJ 190515Z AUTO 00000KT 10SM CLR 23/22 A2992 RMK AO2
KMLJ 190455Z AUTO 00000KT 10SM CLR 24/23 A2993 RMK AO2
KMLJ 190435Z AUTO 00000KT 10SM CLR 24/23 A2993 RMK AO2
KMLJ 190415Z AUTO 00000KT 10SM CLR 24/23 A2993 RMK AO2
KMLJ 190355Z AUTO 00000KT 10SM CLR 24/23 A2994 RMK AO2
KMLJ 190335Z AUTO 00000KT 10SM CLR 24/23 A2994 RMK AO2 LTG DSNT S
KMLJ 190315Z AUTO 00000KT 10SM CLR 25/23 A2995 RMK AO2
KMLJ 190255Z AUTO 00000KT 10SM CLR 25/22 A2996 RMK AO2
KMLJ 190235Z AUTO 00000KT 10SM CLR 25/22 A2995 RMK AO2
KMLJ 190215Z AUTO 00000KT 10SM CLR 25/22 A2995 RMK AO2 LTG DSNT SW
KMLJ 190155Z AUTO 00000KT 10SM CLR 25/22 A2994 RMK AO2 LTG DSNT S AND SW
KMLJ 190135Z AUTO 00000KT 10SM VCTS CLR 25/22 A2994 RMK AO2 LTG DSNT SE THRU SW
KMLJ 190115Z AUTO 18006KT 10SM CLR 26/23 A2994 RMK AO2 LTG DSNT SW
KMLJ 190055Z AUTO 00000KT 10SM CLR 26/23 A2992 RMK AO2 LTG DSNT SE AND S
KMLJ 190035Z AUTO 00000KT 10SM CLR 26/22 A2992 RMK AO2 LTG DSNT S
KMLJ 190015Z AUTO 00000KT 10SM CLR 27/22 A2991 RMK AO2 LTG DSNT SE AND S
KMLJ 182355Z AUTO 00000KT 10SM CLR 27/21 A2991 RMK AO2 LTG DSNT S AND SW
KMLJ 182335Z AUTO 26003KT 10SM CLR 27/21 A2990 RMK AO2 LTG DSNT S AND SW
KMLJ 182315Z AUTO 00000KT 10SM CLR 27/21 A2989 RMK AO2 LTG DSNT SE THRU SW
KMLJ 182255Z AUTO 24005G16KT 10SM TS CLR 27/22 A2989 RMK AO2 LTG DSNT SE THRU W
KMLJ 182235Z AUTO 23005KT 10SM TS SCT043 SCT060 BKN095 27/22 A2991 RMK AO2 LTG DSNT SE THRU W
KMLJ 182215Z AUTO 17008KT 150V250 10SM TS BKN041 OVC060 28/23 A2991 RMK AO2 LTG DSNT SE THRU W
KMLJ 182155Z AUTO 13006G14KT 10SM VCTS BKN043 BKN050 32/23 A2989 RMK AO2 LTG DSNT SE AND S
KMLJ 182135Z AUTO 08003KT 10SM VCTS SCT041 34/23 A2989 RMK AO2 LTG DSNT SE
KMLJ 182115Z AUTO 27004KT 10SM CLR 35/23 A2989 RMK AO2 LTG DSNT E THRU SW
KMLJ 182055Z AUTO 10SM CLR 34/23 A2989 RMK AO2 LTG DSNT E THRU S
KMLJ 182035Z AUTO 10SM SCT039 SCT110 34/24 A2989 RMK AO2 LTG DSNT E AND SE
KMLJ 182015Z AUTO 33/23 A2990 RMK AO2 PWINO
KMLJ 181855Z AUTO 10SM SCT038 SCT085 32/25 A2992 RMK AO2 LTG DSNT E
KMLJ 181835Z AUTO 7SM -RA SCT038 SCT055 BKN085 31/25 A2993 RMK AO2 LTG DSNT E AND SE
KMLJ 181815Z AUTO 10SM SCT039 SCT049 BKN055 32/23 A2994 RMK AO2
KMLJ 181755Z AUTO 10SM SCT038 SCT046 BKN055 32/23 A2994 RMK AO2
KMLJ 181735Z AUTO 10SM SCT040 SCT046 SCT055 32/23 A2995 RMK AO2
KMLJ 181715Z AUTO 10SM CLR 32/23 A2996 RMK AO2
KMLJ 181655Z AUTO 10SM SCT034 SCT047 32/23 A2996 RMK AO2
KMLJ 181635Z AUTO 10SM BKN032 31/24 A2997 RMK AO2
KMLJ 181615Z AUTO 24004KT 10SM SCT030 SCT036 32/23 A2997 RMK AO2
KMLJ 181555Z AUTO 10SM CLR 30/23 A2998 RMK AO2
KMLJ 181535Z AUTO 10SM CLR 31/24 A2998 RMK AO2
KMLJ 181515Z AUTO 10SM SCT019 SCT120 30/23 A2998 RMK AO2
KMLJ 181455Z AUTO 10SM SCT019 29/23 A2998 RMK AO2
KMLJ 181435Z AUTO 10SM SCT017 SCT110 29/23 A2998 RMK AO2
KMLJ 181415Z AUTO 10SM SCT013 SCT110 28/24 A2998 RMK AO2
KMLJ 181355Z AUTO 10SM SCT013 28/24 A2998 RMK AO2
KMLJ 181335Z AUTO 10SM CLR 28/24 A2998 RMK AO2
KMLJ 181315Z AUTO 10SM CLR 27/24 A2998 RMK AO2
KMLJ 181255Z AUTO 10SM CLR 26/24 A2998 RMK AO2
KMLJ 181235Z AUTO 10SM CLR 26/24 A2997 RMK AO2
KMLJ 181215Z AUTO 10SM CLR 25/24 A2997 RMK AO2
KMLJ 181155Z AUTO 10SM CLR 25/23 A2997 RMK AO2
KMLJ 181135Z AUTO 10SM CLR 24/23 A2996 RMK AO2 LTG DSNT SE
KMLJ 181115Z AUTO 00000KT 7SM CLR 23/23 A2996 RMK AO2
KMLJ 181055Z AUTO 00000KT 5SM BR CLR 23/23 A2995 RMK AO2
KMLJ 181035Z AUTO 7SM CLR 23/23 A2995 RMK AO2
KMLJ 181015Z AUTO 00000KT 10SM CLR 23/23 A2995 RMK AO2
KMLJ 180955Z AUTO 10SM CLR 23/23 A2995 RMK AO2
KMLJ 180935Z AUTO 10SM CLR 23/23 A2994 RMK AO2
KMLJ 180915Z AUTO 10SM CLR 23/23 A2994 RMK AO2
KMLJ 180855Z AUTO 00000KT 10SM CLR 23/23 A2994 RMK AO2
KMLJ 180835Z AUTO 00000KT 10SM CLR 23/23 A2994 RMK AO2
KMLJ 180815Z AUTO 00000KT 10SM SCT042 23/23 A2993 RMK AO2
KMLJ 180755Z AUTO 00000KT 10SM CLR 23/23 A2993 RMK AO2
KMLJ 180735Z AUTO 00000KT 10SM CLR 24/23 A2994 RMK AO2
KMLJ 180715Z AUTO 00000KT 10SM CLR 24/23 A2993 RMK AO2
KMLJ 180655Z AUTO 00000KT 10SM CLR 24/23 A2994 RMK AO2
KMLJ 180635Z AUTO 00000KT 10SM CLR 24/23 A2994 RMK AO2
KMLJ 180615Z AUTO 10SM CLR 24/23 A2995 RMK AO2
KMLJ 180555Z AUTO 10SM CLR 24/23 A2996 RMK AO2
KMLJ 180535Z AUTO 10SM CLR 25/23 A2997 RMK AO2
KMLJ 180515Z AUTO 00000KT 10SM CLR 25/23 A2997 RMK AO2
KMLJ 180455Z AUTO 10SM CLR 25/23 A2997 RMK AO2
KMLJ 180435Z AUTO 00000KT 10SM CLR 25/23 A2997 RMK AO2
KMLJ 180415Z AUTO 00000KT 10SM CLR 25/23 A2997 RMK AO2
KMLJ 180355Z AUTO 10SM CLR 25/22 A2997 RMK AO2
KMLJ 180335Z AUTO 00000KT 10SM CLR 25/22 A2997 RMK AO2
KMLJ 180315Z AUTO 00000KT 10SM CLR 25/22 A2998 RMK AO2
KMLJ 180255Z AUTO 10SM CLR 26/22 A2998 RMK AO2
KMLJ 180235Z AUTO 10SM CLR 26/22 A2997 RMK AO2
KMLJ 180215Z AUTO 22003KT 10SM CLR 26/22 A2996 RMK AO2
KMLJ 180155Z AUTO 10SM CLR 26/22 A2996 RMK AO2 LTG DSNT NE
KMLJ 180135Z AUTO 00000KT 10SM CLR 26/23 A2996 RMK AO2